Search for airport 
image banner adimage banner adimage banner ad
image banner ad

4IA2 - Walker Field

Located in West Liberty, United States

ICAO - 4IA2, IATA -

Data provided by Airmate  

General information

Coordinates: N41°35'10" W91°13'13"
Elevation is 715 feet MSL.
Magnetic variation is 01° East
View others Airports in Iowa

Operational data

Special qualification required
Current time UTC:
Current local time:
Weather at : KMUT - Muscatine Muni ( 25 km )
METAR: KMUT 181735Z AUTO 36005KT 10SM CLR 30/22 A2979 RMK AO2
View NOTAMs / SUP AIP / TFR affecting this airport [VIEW]
Communications frequencies: [VIEW]

Runways:

RWY identifierQFULength (ft)Width (ft)SurfaceLDA (ft)
18230066GRASS
36230066GRASS

Airport contact information

Address: West Liberty United States

Satellite view of 4IA2